Time;durP1;ratioP1;P1;durP2;ratioP2;P2;SDS_P1;SDS_P2;PMS_P1;PMS_P2;Temp;Humidity;BMP_temperature;BMP_pressure;BME280_temperature;BME280_humidity;BME280_pressure;Samples;Min_cycle;Max_cycle;Signal;HPM_P1;HPM_P2
2022/03/02 00:01:32;;;;;;;5.15;1.08;;;30.40;13.70;;;;;;5069107;28;20439;-66
2022/03/02 00:03:59;;;;;;;5.70;0.68;;;30.40;13.30;;;;;;5070106;28;20072;-65
2022/03/02 00:06:26;;;;;;;2.28;0.75;;;30.40;13.40;;;;;;5071444;28;20222;-65
2022/03/02 00:08:53;;;;;;;2.97;0.77;;;30.40;13.40;;;;;;5070709;28;20113;-65
2022/03/02 00:11:19;;;;;;;3.67;0.90;;;30.30;13.90;;;;;;5072568;28;20615;-68
2022/03/02 00:13:46;;;;;;;4.35;0.77;;;30.20;14.00;;;;;;5070071;28;20072;-66
2022/03/02 00:16:14;;;;;;;8.43;1.20;;;30.10;14.90;;;;;;5070284;28;20087;-65
2022/03/02 00:18:40;;;;;;;7.72;1.58;;;29.90;13.30;;;;;;5069753;28;20072;-66
2022/03/02 00:21:07;;;;;;;10.70;1.20;;;29.90;13.90;;;;;;5069564;28;20095;-65
2022/03/02 00:23:33;;;;;;;5.28;1.20;;;30.00;15.70;;;;;;5052052;28;20614;-65
2022/03/02 00:26:00;;;;;;;7.32;1.92;;;29.90;14.10;;;;;;5051665;28;20815;-66
2022/03/02 00:28:26;;;;;;;7.10;2.55;;;29.90;13.50;;;;;;5069169;28;20072;-67
2022/03/02 00:30:53;;;;;;;6.80;1.40;;;29.80;14.10;;;;;;5070278;28;20170;-67
2022/03/02 00:33:19;;;;;;;9.10;2.13;;;29.70;13.40;;;;;;5068535;28;20462;-67
2022/03/02 00:35:46;;;;;;;5.32;1.73;;;29.70;14.00;;;;;;5068758;28;20118;-65
2022/03/02 00:38:13;;;;;;;4.05;1.13;;;29.60;14.70;;;;;;5053085;28;20091;-64
2022/03/02 00:40:40;;;;;;;13.68;2.03;;;29.50;15.80;;;;;;5066563;28;20098;-68
2022/03/02 00:43:08;;;;;;;6.70;1.27;;;29.40;17.60;;;;;;5052817;28;20094;-66
2022/03/02 00:45:36;;;;;;;8.48;1.52;;;29.20;15.50;;;;;;5068765;28;20664;-66
2022/03/02 00:48:04;;;;;;;4.25;1.23;;;29.00;16.10;;;;;;5068493;28;20076;-67
2022/03/02 00:50:32;;;;;;;6.20;1.50;;;28.90;16.50;;;;;;5068966;28;20099;-66
2022/03/02 00:52:59;;;;;;;8.52;1.48;;;28.70;16.10;;;;;;5059207;28;20067;-66
2022/03/02 00:55:26;;;;;;;5.35;1.20;;;28.60;14.90;;;;;;5069171;28;20155;-67
2022/03/02 00:57:53;;;;;;;4.38;1.15;;;28.50;15.50;;;;;;5070009;28;20077;-67
2022/03/02 01:00:19;;;;;;;8.38;1.10;;;28.40;14.20;;;;;;5068906;28;20084;-67
2022/03/02 01:02:46;;;;;;;3.03;1.20;;;28.30;14.90;;;;;;5068387;28;20184;-67
2022/03/02 01:05:13;;;;;;;7.50;2.55;;;28.10;16.10;;;;;;5067300;28;20073;-67
2022/03/02 01:07:39;;;;;;;11.98;2.35;;;28.00;15.40;;;;;;5069961;28;20075;-67
2022/03/02 01:10:07;;;;;;;9.98;2.55;;;27.90;15.50;;;;;;5068098;28;20087;-68
2022/03/02 01:12:34;;;;;;;29.60;9.65;;;27.70;16.50;;;;;;5068490;28;20100;-69
2022/03/02 01:15:01;;;;;;;13.98;4.40;;;27.60;17.60;;;;;;5067473;28;20073;-67
2022/03/02 01:17:27;;;;;;;13.68;4.63;;;27.40;18.40;;;;;;5067676;28;20105;-68
2022/03/02 01:19:54;;;;;;;19.15;5.55;;;27.20;19.30;;;;;;5070480;28;20092;-68
2022/03/02 01:22:21;;;;;;;15.40;4.57;;;27.00;17.30;;;;;;5069066;28;20080;-68
2022/03/02 01:24:47;;;;;;;19.55;5.38;;;26.90;18.40;;;;;;5069134;28;20115;-68
2022/03/02 01:27:13;;;;;;;26.38;6.07;;;26.70;20.10;;;;;;5068550;28;20080;-66
2022/03/02 01:29:43;;;;;;;29.70;6.78;;;26.50;20.40;;;;;;5069481;28;20191;-65
2022/03/02 01:32:10;;;;;;;22.75;7.00;;;26.30;19.50;;;;;;5068932;28;20078;-66
2022/03/02 01:34:37;;;;;;;26.20;6.07;;;26.20;18.20;;;;;;5069058;28;20081;-66
2022/03/02 01:37:04;;;;;;;21.13;4.80;;;26.00;18.60;;;;;;5070702;28;20123;-66
2022/03/02 01:39:31;;;;;;;22.98;3.63;;;25.80;18.10;;;;;;5069351;28;20150;-66
2022/03/02 01:41:58;;;;;;;17.30;3.00;;;25.80;19.10;;;;;;5068774;28;20112;-69
2022/03/02 01:44:25;;;;;;;16.58;3.72;;;25.60;18.70;;;;;;5069598;28;20220;-67
2022/03/02 01:46:51;;;;;;;26.02;3.35;;;25.30;18.50;;;;;;5071400;28;20077;-70
2022/03/02 01:49:18;;;;;;;25.92;4.68;;;25.10;19.30;;;;;;5068015;28;20088;-69
2022/03/02 01:51:44;;;;;;;13.85;4.68;;;24.90;19.60;;;;;;5068015;28;20176;-66
2022/03/02 01:54:11;;;;;;;35.50;9.85;;;24.80;20.50;;;;;;5066819;28;20073;-66
2022/03/02 01:56:37;;;;;;;63.78;32.80;;;24.70;20.50;;;;;;5066902;28;20073;-65
2022/03/02 01:59:04;;;;;;;50.50;21.40;;;24.50;20.70;;;;;;5069289;28;20065;-66
2022/03/02 02:01:32;;;;;;;64.55;22.00;;;24.40;21.30;;;;;;5069542;28;20084;-66
2022/03/02 02:03:59;;;;;;;44.72;17.67;;;24.20;21.70;;;;;;5034847;28;20122;-67
2022/03/02 02:06:25;;;;;;;27.85;8.55;;;24.10;21.60;;;;;;5068624;28;20147;-67
2022/03/02 02:08:52;;;;;;;34.67;7.70;;;23.90;21.80;;;;;;5068960;28;20076;-66
2022/03/02 02:11:19;;;;;;;29.70;7.07;;;23.80;22.00;;;;;;5052037;28;20092;-67
2022/03/02 02:13:46;;;;;;;61.60;7.50;;;23.70;22.30;;;;;;5068964;28;20065;-67
2022/03/02 02:16:14;;;;;;;38.00;6.50;;;23.50;22.30;;;;;;5067575;28;20081;-65
2022/03/02 02:18:41;;;;;;;39.45;6.22;;;23.30;21.70;;;;;;5050575;28;20108;-65
2022/03/02 02:21:09;;;;;;;44.00;5.78;;;23.20;22.00;;;;;;5068702;28;20085;-66
2022/03/02 02:23:37;;;;;;;46.47;5.50;;;23.10;22.80;;;;;;5067976;28;20085;-65
2022/03/02 02:26:05;;;;;;;35.08;4.82;;;23.00;22.90;;;;;;5067748;28;20100;-68
2022/03/02 02:28:32;;;;;;;45.78;6.05;;;22.90;22.30;;;;;;5071722;28;20076;-68
2022/03/02 02:31:00;;;;;;;49.75;6.15;;;22.80;22.30;;;;;;5068994;28;20084;-68
2022/03/02 02:33:28;;;;;;;50.65;5.75;;;22.60;23.10;;;;;;5070949;28;20088;-66
2022/03/02 02:35:55;;;;;;;64.00;6.50;;;22.50;24.00;;;;;;5047880;28;20097;-66
2022/03/02 02:38:23;;;;;;;36.92;6.90;;;22.40;24.10;;;;;;5068563;28;20072;-67
2022/03/02 02:40:50;;;;;;;53.72;6.63;;;22.30;23.90;;;;;;5050600;28;20134;-66
2022/03/02 02:43:19;;;;;;;62.90;6.50;;;22.20;24.20;;;;;;5069675;28;20079;-67
2022/03/02 02:45:46;;;;;;;48.40;7.40;;;22.20;24.40;;;;;;5067591;28;20169;-68
2022/03/02 02:48:12;;;;;;;45.08;5.78;;;22.00;24.20;;;;;;5069156;28;20089;-66
2022/03/02 02:50:40;;;;;;;51.85;6.80;;;21.90;23.60;;;;;;5066660;28;20146;-66
2022/03/02 02:53:09;;;;;;;71.40;8.90;;;21.80;23.80;;;;;;5066913;28;20072;-68
2022/03/02 02:55:36;;;;;;;69.93;9.63;;;21.70;24.10;;;;;;5068152;28;20077;-69
2022/03/02 02:58:04;;;;;;;74.75;11.82;;;21.70;24.10;;;;;;5073399;28;20069;-64
2022/03/02 03:00:34;;;;;;;84.80;12.13;;;21.60;23.90;;;;;;5078409;28;20073;-65
2022/03/02 03:03:01;;;;;;;107.38;13.45;;;21.50;24.20;;;;;;5072166;28;20077;-66
2022/03/02 03:05:31;;;;;;;115.43;13.32;;;21.40;24.10;;;;;;5054792;28;20074;-65
2022/03/02 03:08:00;;;;;;;126.32;14.82;;;21.40;24.50;;;;;;5054535;28;20442;-68
2022/03/02 03:10:27;;;;;;;166.88;17.55;;;21.30;24.90;;;;;;5069984;28;20121;-66
2022/03/02 03:12:54;;;;;;;139.07;16.25;;;21.30;25.00;;;;;;5055384;28;20080;-68
2022/03/02 03:15:22;;;;;;;118.60;14.55;;;21.20;24.70;;;;;;5072038;28;20069;-67
2022/03/02 03:17:49;;;;;;;129.25;15.63;;;21.20;25.10;;;;;;5072951;28;20169;-66
2022/03/02 03:20:19;;;;;;;125.65;16.50;;;21.10;25.00;;;;;;5071323;28;20089;-66
2022/03/02 03:22:45;;;;;;;121.72;15.25;;;21.00;25.30;;;;;;5054634;28;20069;-66
2022/03/02 03:25:12;;;;;;;119.93;15.25;;;20.90;24.80;;;;;;5055518;28;20156;-67
2022/03/02 03:27:40;;;;;;;107.85;15.73;;;20.90;24.40;;;;;;5071712;28;20092;-66
2022/03/02 03:30:11;;;;;;;125.43;16.80;;;20.80;24.20;;;;;;5070917;28;20085;-67
2022/03/02 03:32:38;;;;;;;128.50;17.15;;;20.80;25.20;;;;;;5054699;28;20081;-66
2022/03/02 03:35:06;;;;;;;118.38;18.00;;;20.70;25.60;;;;;;5054155;28;20073;-67
2022/03/02 03:37:32;;;;;;;101.22;14.70;;;20.70;26.10;;;;;;5070274;28;20156;-67
2022/03/02 03:39:59;;;;;;;92.75;13.90;;;20.60;26.00;;;;;;5070494;28;20638;-67
2022/03/02 03:42:25;;;;;;;90.90;13.98;;;20.60;25.90;;;;;;5071628;28;20077;-66
2022/03/02 03:44:52;;;;;;;113.05;15.80;;;20.50;25.10;;;;;;5053230;28;20535;-67
2022/03/02 03:47:19;;;;;;;82.90;15.95;;;20.40;25.10;;;;;;5070490;28;20163;-65
2022/03/02 03:49:46;;;;;;;95.25;17.88;;;20.40;24.60;;;;;;5071006;28;20226;-67
2022/03/02 03:52:12;;;;;;;97.57;18.38;;;20.40;24.50;;;;;;5071940;28;20073;-67
2022/03/02 03:54:39;;;;;;;88.95;16.35;;;20.30;24.90;;;;;;5070589;28;20223;-67
2022/03/02 03:57:06;;;;;;;75.47;14.73;;;20.30;24.40;;;;;;5071013;28;20069;-65
2022/03/02 03:59:33;;;;;;;76.43;15.90;;;20.30;23.50;;;;;;5069990;28;20379;-66
2022/03/02 04:01:59;;;;;;;77.05;17.17;;;20.40;22.70;;;;;;5070324;28;20081;-66
2022/03/02 04:04:26;;;;;;;84.28;17.85;;;20.50;22.40;;;;;;5055582;28;20154;-67
2022/03/02 04:06:53;;;;;;;88.50;18.70;;;20.50;22.70;;;;;;5054569;28;20514;-67
2022/03/02 04:09:19;;;;;;;79.90;20.17;;;20.50;22.90;;;;;;5051887;28;20086;-66
2022/03/02 04:11:46;;;;;;;122.82;26.30;;;20.50;23.30;;;;;;5054302;28;20084;-66
2022/03/02 04:14:12;;;;;;;139.23;30.10;;;20.50;23.30;;;;;;5071198;28;20151;-65
2022/03/02 04:16:39;;;;;;;114.35;30.23;;;20.50;23.70;;;;;;5071828;28;20080;-66
2022/03/02 04:19:05;;;;;;;133.30;26.50;;;20.50;24.40;;;;;;5053294;28;20079;-66
2022/03/02 04:21:32;;;;;;;106.80;26.50;;;20.40;24.00;;;;;;5068838;28;20091;-67
2022/03/02 04:23:59;;;;;;;121.50;26.23;;;20.50;23.10;;;;;;5052633;28;20080;-65
2022/03/02 04:26:25;;;;;;;121.72;26.35;;;20.50;22.90;;;;;;5052815;28;20215;-65
2022/03/02 04:28:51;;;;;;;126.00;27.08;;;20.50;23.60;;;;;;5070210;28;20093;-66
2022/03/02 04:31:18;;;;;;;95.85;26.70;;;20.40;24.20;;;;;;5068985;28;20508;-67
2022/03/02 04:33:44;;;;;;;132.98;32.85;;;20.30;24.60;;;;;;5051729;28;20435;-65
2022/03/02 04:36:11;;;;;;;132.02;35.55;;;20.30;24.60;;;;;;5069595;28;20755;-67
2022/03/02 04:38:37;;;;;;;132.63;36.67;;;20.30;24.60;;;;;;5059460;28;20083;-66
2022/03/02 04:41:04;;;;;;;131.35;40.20;;;20.20;24.50;;;;;;5069159;28;20552;-67
2022/03/02 04:43:30;;;;;;;142.50;39.90;;;20.10;24.00;;;;;;5067263;28;20499;-65
2022/03/02 04:45:57;;;;;;;147.70;41.35;;;20.10;24.00;;;;;;5072197;28;20108;-66
2022/03/02 04:48:24;;;;;;;127.05;39.58;;;20.10;23.80;;;;;;5068463;28;20550;-66
2022/03/02 04:50:50;;;;;;;147.30;42.33;;;20.10;23.90;;;;;;5070146;28;20555;-66
2022/03/02 04:53:18;;;;;;;133.20;42.90;;;20.00;24.00;;;;;;5068341;28;20081;-67
2022/03/02 04:55:45;;;;;;;138.18;43.45;;;20.00;24.40;;;;;;5068940;28;20076;-66
2022/03/02 04:58:12;;;;;;;149.27;42.35;;;20.00;24.30;;;;;;5068856;28;20069;-65
2022/03/02 05:00:39;;;;;;;130.25;40.38;;;19.90;23.90;;;;;;5051545;28;20108;-66
2022/03/02 05:03:06;;;;;;;129.55;39.58;;;19.90;24.20;;;;;;5068544;28;20073;-67
2022/03/02 05:05:38;;;;;;;117.88;40.22;;;19.80;24.40;;;;;;5068745;28;20165;-67
2022/03/02 05:08:06;;;;;;;121.85;38.42;;;19.70;24.00;;;;;;5068733;28;20081;-66
2022/03/02 05:10:32;;;;;;;134.82;40.80;;;19.70;23.70;;;;;;5051086;28;20180;-65
2022/03/02 05:12:59;;;;;;;130.80;39.80;;;19.60;23.90;;;;;;5052410;28;20080;-66
2022/03/02 05:15:26;;;;;;;138.00;38.63;;;19.60;23.80;;;;;;5070181;28;20065;-66
2022/03/02 05:17:52;;;;;;;162.70;38.30;;;19.60;24.20;;;;;;5055138;28;20565;-69
2022/03/02 05:20:21;;;;;;;123.82;33.75;;;19.50;24.40;;;;;;5050349;28;20143;-67
2022/03/02 05:22:49;;;;;;;115.30;32.08;;;19.50;24.80;;;;;;5067804;28;20601;-66
2022/03/02 05:25:16;;;;;;;133.43;30.52;;;19.40;23.80;;;;;;5068186;28;20077;-66
2022/03/02 05:27:43;;;;;;;127.15;29.13;;;19.40;24.10;;;;;;5069925;28;20073;-68
2022/03/02 05:30:11;;;;;;;122.03;29.05;;;19.30;23.50;;;;;;5068457;28;20089;-66
2022/03/02 05:32:38;;;;;;;118.20;28.17;;;19.20;23.60;;;;;;5067848;28;20073;-64
2022/03/02 05:35:06;;;;;;;98.03;27.45;;;19.20;24.20;;;;;;5050891;28;20073;-65
2022/03/02 05:37:34;;;;;;;109.05;27.48;;;19.20;24.60;;;;;;5068918;28;20119;-66
2022/03/02 05:40:02;;;;;;;132.25;28.70;;;19.10;24.70;;;;;;5069286;28;20142;-66
2022/03/02 05:42:29;;;;;;;125.50;28.15;;;19.10;25.40;;;;;;5069842;28;20145;-65
2022/03/02 05:44:55;;;;;;;108.18;28.15;;;19.00;25.60;;;;;;5067370;28;20108;-65
2022/03/02 05:47:22;;;;;;;98.15;24.85;;;19.00;25.60;;;;;;5069470;28;20088;-65
2022/03/02 05:49:50;;;;;;;83.45;26.75;;;18.90;25.80;;;;;;5068051;28;20305;-67
2022/03/02 05:52:18;;;;;;;97.78;27.77;;;18.80;25.80;;;;;;5067107;28;20073;-67
2022/03/02 05:54:44;;;;;;;106.80;29.88;;;18.70;25.40;;;;;;5050464;28;20187;-65
2022/03/02 05:57:11;;;;;;;122.63;29.73;;;18.70;25.50;;;;;;5066140;28;20093;-66
2022/03/02 05:59:37;;;;;;;102.28;27.35;;;18.60;26.30;;;;;;5068156;28;20081;-66
2022/03/02 06:02:03;;;;;;;;;;;18.50;26.20;;;;;;5067447;28;20481;-64
2022/03/02 06:04:30;;;;;;;110.15;29.50;;;18.40;25.90;;;;;;5067552;28;20011;-67
2022/03/02 06:06:56;;;;;;;123.22;30.60;;;18.40;26.00;;;;;;5067986;28;20149;-67
2022/03/02 06:09:22;;;;;;;;;;;18.30;26.10;;;;;;5051576;28;20489;-64
2022/03/02 06:11:49;;;;;;;127.15;31.65;;;18.30;26.90;;;;;;5051157;28;19961;-65
2022/03/02 06:14:16;;;;;;;110.30;29.70;;;18.20;26.80;;;;;;5071546;28;20108;-65
2022/03/02 06:16:43;;;;;;;108.43;26.55;;;18.20;27.50;;;;;;5068342;28;20488;-67
2022/03/02 06:19:10;;;;;;;128.73;28.45;;;18.20;27.50;;;;;;5066571;28;20554;-66
2022/03/02 06:21:40;;;;;;;98.03;24.48;;;18.20;27.70;;;;;;5067825;28;20541;-67
2022/03/02 06:24:07;;;;;;;95.72;25.58;;;18.10;27.20;;;;;;5067009;28;20112;-66
2022/03/02 06:26:34;;;;;;;99.68;25.27;;;18.00;27.30;;;;;;5075185;28;20093;-65
2022/03/02 06:29:00;;;;;;;116.03;26.00;;;18.00;27.50;;;;;;5079127;28;20098;-65
2022/03/02 06:31:26;;;;;;;;;;;18.00;28.00;;;;;;5070791;28;20570;-65
2022/03/02 06:33:52;;;;;;;130.60;26.95;;;17.90;27.80;;;;;;5065702;28;19973;-64
2022/03/02 06:36:20;;;;;;;116.55;26.38;;;17.90;27.80;;;;;;5066116;28;20523;-66
2022/03/02 06:38:46;;;;;;;90.97;24.80;;;17.90;27.90;;;;;;5067398;28;20431;-65
2022/03/02 06:41:36;;;;;;;119.15;26.30;;;17.90;27.80;;;;;;5068654;28;20162;-65
2022/03/02 06:44:19;;;;;;;95.90;24.85;;;17.80;28.30;;;;;;5068780;28;20113;-64
2022/03/02 06:46:48;;;;;;;92.75;23.02;;;17.80;28.00;;;;;;5050563;28;20085;-65
2022/03/02 06:49:47;;;;;;;140.32;27.88;;;17.70;28.10;;;;;;5066707;28;20146;-64
2022/03/02 06:52:17;;;;;;;103.05;23.38;;;17.70;27.60;;;;;;5050428;28;20076;-64
2022/03/02 06:54:46;;;;;;;108.25;26.85;;;17.70;28.00;;;;;;5050545;28;20073;-65
2022/03/02 06:57:19;;;;;;;110.13;24.50;;;17.70;27.70;;;;;;5065393;28;20085;-66
2022/03/02 06:59:52;;;;;;;122.50;24.95;;;17.60;28.10;;;;;;5066972;28;20085;-66
2022/03/02 07:02:31;;;;;;;102.70;23.58;;;17.60;27.80;;;;;;5050823;28;20111;-66
2022/03/02 07:05:00;;;;;;;95.50;22.10;;;17.60;28.20;;;;;;5049156;28;20069;-66
2022/03/02 07:07:26;;;;;;;102.25;22.30;;;17.50;27.90;;;;;;5067939;28;20408;-65
2022/03/02 07:09:55;;;;;;;74.85;19.70;;;17.50;27.70;;;;;;5049681;28;20077;-65
2022/03/02 07:12:21;;;;;;;88.07;17.52;;;17.40;26.60;;;;;;5068321;28;20120;-66
2022/03/02 07:14:50;;;;;;;92.20;16.70;;;17.40;26.40;;;;;;5070350;28;20519;-67
2022/03/02 07:17:17;;;;;;;69.78;17.30;;;17.40;26.30;;;;;;5049709;28;20073;-64
2022/03/02 07:19:43;;;;;;;75.95;17.83;;;17.40;26.30;;;;;;5067463;28;20149;-66
2022/03/02 07:22:15;;;;;;;80.45;25.95;;;17.40;27.30;;;;;;5050527;28;20127;-65
2022/03/02 07:24:51;;;;;;;104.22;28.55;;;17.40;26.60;;;;;;5065863;28;20458;-65
2022/03/02 07:27:18;;;;;;;97.47;30.23;;;17.30;26.80;;;;;;5066733;28;20550;-65
2022/03/02 07:29:48;;;;;;;79.28;29.00;;;17.30;27.80;;;;;;5067848;28;20077;-65
2022/03/02 07:32:23;;;;;;;86.13;32.10;;;17.30;27.70;;;;;;5066826;28;20278;-65
2022/03/02 07:34:55;;;;;;;88.45;30.80;;;17.30;28.20;;;;;;5049206;28;20537;-68
2022/03/02 07:37:24;;;;;;;93.95;33.55;;;17.20;27.60;;;;;;5065752;28;20511;-65
2022/03/02 07:39:51;;;;;;;93.75;36.65;;;17.20;27.30;;;;;;5065868;28;20138;-65
2022/03/02 07:42:17;;;;;;;;;;;17.10;27.70;;;;;;5070609;28;20546;-65
2022/03/02 07:44:44;;;;;;;97.55;40.05;;;17.00;28.90;;;;;;5085095;28;20371;-65
2022/03/02 07:47:10;;;;;;;110.75;47.50;;;16.90;28.20;;;;;;5071669;28;20533;-65
2022/03/02 07:49:37;;;;;;;116.38;53.13;;;16.80;28.00;;;;;;5070726;28;20101;-65
2022/03/02 07:52:05;;;;;;;102.85;50.97;;;16.80;28.20;;;;;;5067809;28;20168;-65
2022/03/02 07:54:36;;;;;;;100.57;50.60;;;16.80;28.50;;;;;;5056031;28;20076;-65
2022/03/02 07:57:04;;;;;;;110.82;51.50;;;16.80;28.30;;;;;;5037397;28;20419;-65
2022/03/02 07:59:42;;;;;;;99.68;45.97;;;16.80;29.00;;;;;;5071223;28;20096;-65
2022/03/02 08:02:10;;;;;;;99.32;44.35;;;16.80;28.80;;;;;;5053328;28;20073;-65
2022/03/02 08:04:38;;;;;;;97.90;40.88;;;16.70;29.10;;;;;;5070754;28;20077;-64
2022/03/02 08:07:05;;;;;;;85.65;38.28;;;16.70;29.20;;;;;;5073165;28;20072;-64
2022/03/02 08:09:32;;;;;;;95.10;37.35;;;16.60;29.80;;;;;;5057297;28;20073;-66
2022/03/02 08:12:00;;;;;;;77.07;34.17;;;16.60;30.00;;;;;;5056185;28;20108;-64
2022/03/02 08:14:28;;;;;;;84.63;34.97;;;16.50;30.20;;;;;;5072325;28;20069;-64
2022/03/02 08:16:55;;;;;;;79.18;32.22;;;16.50;30.60;;;;;;5069600;28;20168;-66
2022/03/02 08:19:22;;;;;;;84.03;32.20;;;16.40;30.20;;;;;;5070245;28;20505;-66
2022/03/02 08:22:03;;;;;;;81.85;29.35;;;16.40;30.10;;;;;;5057332;28;20078;-66
2022/03/02 08:24:31;;;;;;;69.30;28.80;;;16.30;30.20;;;;;;5073467;28;20084;-64
2022/03/02 08:27:00;;;;;;;59.08;25.02;;;16.30;30.40;;;;;;5035479;28;20069;-64
2022/03/02 08:29:30;;;;;;;61.47;24.27;;;16.30;30.60;;;;;;5067876;28;20076;-65
2022/03/02 08:32:01;;;;;;;71.78;24.05;;;16.20;31.30;;;;;;5056320;28;20589;-68
2022/03/02 08:34:29;;;;;;;76.03;22.75;;;16.20;31.10;;;;;;5072643;28;20438;-68
2022/03/02 08:36:57;;;;;;;67.57;21.23;;;16.10;31.30;;;;;;5052598;28;20206;-68
2022/03/02 08:39:24;;;;;;;59.10;21.65;;;16.10;32.00;;;;;;5067676;28;20066;-65
2022/03/02 08:41:52;;;;;;;66.45;20.13;;;16.10;32.40;;;;;;5054743;28;20180;-65
2022/03/02 08:44:19;;;;;;;55.88;20.33;;;16.10;32.70;;;;;;5069050;28;20196;-65
2022/03/02 08:46:47;;;;;;;47.47;18.05;;;16.10;32.50;;;;;;5072177;28;20076;-65
2022/03/02 08:49:15;;;;;;;55.92;18.15;;;16.00;32.30;;;;;;5073374;28;20461;-67
2022/03/02 08:51:42;;;;;;;52.92;16.70;;;15.90;32.10;;;;;;5067547;28;20065;-66
2022/03/02 08:54:13;;;;;;;49.38;15.55;;;16.00;32.40;;;;;;5066847;28;20530;-65
2022/03/02 08:56:41;;;;;;;42.33;11.73;;;15.90;32.00;;;;;;5053132;28;20082;-66
2022/03/02 08:59:12;;;;;;;49.30;12.13;;;15.90;31.40;;;;;;5070225;28;20073;-65
2022/03/02 09:01:42;;;;;;;32.85;11.75;;;15.90;31.70;;;;;;5068262;28;20115;-67
2022/03/02 09:04:16;;;;;;;35.65;9.35;;;15.90;32.60;;;;;;5049909;28;20485;-65
2022/03/02 09:06:43;;;;;;;34.28;9.57;;;15.90;31.60;;;;;;5070968;28;20073;-65
2022/03/02 09:09:10;;;;;;;33.17;9.82;;;15.90;32.10;;;;;;5072213;28;20523;-65
2022/03/02 09:11:38;;;;;;;20.35;5.97;;;15.90;32.50;;;;;;5071245;28;20147;-66
2022/03/02 09:14:05;;;;;;;15.02;4.88;;;15.90;30.60;;;;;;5072951;28;20077;-66
2022/03/02 09:16:32;;;;;;;22.73;5.07;;;16.00;29.80;;;;;;5067676;28;20170;-68
2022/03/02 09:18:58;;;;;;;18.08;4.75;;;16.00;29.80;;;;;;5068748;28;20080;-66
2022/03/02 09:21:28;;;;;;;15.55;4.22;;;16.10;29.30;;;;;;5074508;28;20912;-66
2022/03/02 09:23:55;;;;;;;19.40;4.50;;;16.20;29.40;;;;;;5069206;28;20073;-65
2022/03/02 09:26:22;;;;;;;26.42;5.40;;;16.20;29.40;;;;;;5070144;28;20073;-65
2022/03/02 09:28:51;;;;;;;29.67;6.78;;;16.20;29.30;;;;;;5071070;28;20089;-65
2022/03/02 09:31:20;;;;;;;43.30;7.45;;;16.20;29.40;;;;;;5068600;28;20161;-65
2022/03/02 09:33:55;;;;;;;27.77;8.07;;;16.20;29.20;;;;;;5072455;28;20072;-65
2022/03/02 09:36:24;;;;;;;45.42;9.45;;;16.20;29.20;;;;;;5068602;28;20101;-65
2022/03/02 09:38:52;;;;;;;36.80;8.52;;;16.20;29.30;;;;;;5051863;28;20077;-65
2022/03/02 09:41:28;;;;;;;36.35;9.73;;;16.20;29.20;;;;;;5069310;28;20092;-65
2022/03/02 09:43:57;;;;;;;40.80;9.25;;;16.10;30.00;;;;;;5057110;28;20138;-67
2022/03/02 09:46:36;;;;;;;43.65;9.95;;;16.00;30.10;;;;;;5052688;28;20584;-65
2022/03/02 09:49:10;;;;;;;55.55;12.35;;;15.90;30.00;;;;;;5051183;28;20661;-65
2022/03/02 09:51:40;;;;;;;58.50;13.23;;;15.90;30.00;;;;;;5066726;28;20072;-65
2022/03/02 09:54:08;;;;;;;58.22;12.85;;;15.90;30.20;;;;;;5067146;28;20127;-65
2022/03/02 09:56:35;;;;;;;76.78;14.90;;;15.80;30.20;;;;;;5070757;28;20504;-65
2022/03/02 09:59:07;;;;;;;52.80;13.80;;;15.70;30.10;;;;;;5069939;28;20538;-65
2022/03/02 10:01:35;;;;;;;58.97;14.82;;;15.70;30.70;;;;;;5069126;28;20163;-66
2022/03/02 10:04:17;;;;;;;63.72;15.40;;;15.70;31.50;;;;;;5068639;28;20072;-65
2022/03/02 10:06:45;;;;;;;72.63;15.68;;;15.60;30.50;;;;;;5067262;28;20140;-67
2022/03/02 10:09:18;;;;;;;73.88;17.33;;;15.50;30.80;;;;;;5072889;28;20083;-65
2022/03/02 10:11:45;;;;;;;87.90;19.15;;;15.60;30.80;;;;;;5052269;28;20446;-64
2022/03/02 10:14:11;;;;;;;;;;;15.50;30.10;;;;;;5071490;28;20077;-66
2022/03/02 10:16:44;;;;;;;79.40;19.65;;;15.60;30.10;;;;;;5068883;28;20055;-64
2022/03/02 10:19:21;;;;;;;79.30;18.73;;;15.50;30.20;;;;;;5066883;28;20093;-65
2022/03/02 10:22:03;;;;;;;84.20;18.92;;;15.40;30.30;;;;;;5068184;28;20083;-67
2022/03/02 10:24:32;;;;;;;78.57;18.83;;;15.40;30.40;;;;;;5054797;28;20072;-67
2022/03/02 10:27:05;;;;;;;64.93;17.60;;;15.40;31.00;;;;;;5050977;28;20143;-64
2022/03/02 10:29:43;;;;;;;59.88;16.40;;;15.40;31.00;;;;;;5053801;28;20072;-67
2022/03/02 10:32:17;;;;;;;66.85;17.00;;;15.40;30.50;;;;;;5070934;28;20072;-67
2022/03/02 10:34:50;;;;;;;60.92;16.25;;;15.40;30.20;;;;;;5068049;28;20088;-65
2022/03/02 10:37:20;;;;;;;58.83;15.52;;;15.40;29.70;;;;;;5069331;28;20069;-66
2022/03/02 10:40:09;;;;;;;62.40;15.73;;;15.50;30.00;;;;;;5070817;28;20092;-66
2022/03/02 10:42:57;;;;;;;70.97;16.52;;;15.50;29.40;;;;;;5071738;28;20085;-65
2022/03/02 10:45:27;;;;;;;55.22;14.82;;;15.50;29.20;;;;;;5069491;28;20096;-65
2022/03/02 10:47:55;;;;;;;62.97;14.88;;;15.50;29.20;;;;;;5069119;28;20072;-66
2022/03/02 10:50:23;;;;;;;62.75;16.02;;;15.50;29.40;;;;;;5071413;28;20118;-66
2022/03/02 10:52:53;;;;;;;59.47;14.88;;;15.50;29.70;;;;;;5070715;28;20169;-65
2022/03/02 10:55:21;;;;;;;55.28;14.98;;;15.40;29.40;;;;;;5069638;28;20553;-67
2022/03/02 10:57:50;;;;;;;62.50;14.68;;;15.40;30.50;;;;;;5054175;28;20127;-65
2022/03/02 11:00:19;;;;;;;53.67;13.95;;;15.40;31.00;;;;;;5053224;28;20103;-64
2022/03/02 11:02:57;;;;;;;59.50;14.80;;;15.30;31.30;;;;;;5067700;28;20105;-65
2022/03/02 11:05:30;;;;;;;54.13;13.48;;;15.30;30.90;;;;;;5065364;28;20527;-66
2022/03/02 11:07:57;;;;;;;59.25;14.93;;;15.10;30.60;;;;;;5067825;28;20073;-66
2022/03/02 11:10:37;;;;;;;42.67;13.52;;;15.10;31.10;;;;;;5066207;28;20108;-65
2022/03/02 11:13:12;;;;;;;50.13;14.13;;;15.10;31.20;;;;;;5067529;28;20069;-65
2022/03/02 11:15:46;;;;;;;47.13;14.60;;;15.00;30.90;;;;;;5069484;28;20111;-66
2022/03/02 11:18:17;;;;;;;57.67;14.52;;;15.00;31.00;;;;;;5055165;28;20086;-68
2022/03/02 11:21:14;;;;;;;45.53;12.20;;;14.90;31.40;;;;;;5070957;28;20096;-65
2022/03/02 11:23:50;;;;;;;51.70;13.45;;;14.80;31.70;;;;;;5017495;28;20090;-66
2022/03/02 11:26:18;;;;;;;37.30;11.70;;;14.80;31.40;;;;;;4997394;28;20086;-65
2022/03/02 11:28:50;;;;;;;51.65;12.85;;;14.70;32.30;;;;;;5015808;28;20165;-66
2022/03/02 11:31:29;;;;;;;49.53;12.63;;;14.70;32.60;;;;;;5020894;28;20144;-65
2022/03/02 11:34:16;;;;;;;44.05;11.98;;;14.70;33.40;;;;;;5019597;28;20116;-66
2022/03/02 11:36:46;;;;;;;43.40;11.50;;;14.70;34.10;;;;;;5023170;28;20084;-65
2022/03/02 11:39:15;;;;;;;50.42;11.45;;;14.60;34.30;;;;;;5022161;28;20551;-68
2022/03/02 11:41:44;;;;;;;48.55;12.98;;;14.60;34.50;;;;;;5011791;28;20106;-67
2022/03/02 11:44:32;;;;;;;45.75;12.00;;;14.60;34.80;;;;;;5026239;28;20265;-66
2022/03/02 11:47:05;;;;;;;49.72;12.75;;;14.50;34.40;;;;;;5026546;28;20078;-66
2022/03/02 11:49:52;;;;;;;42.70;12.93;;;14.50;34.50;;;;;;5016664;28;20089;-66
2022/03/02 11:52:22;;;;;;;43.38;12.45;;;14.40;35.40;;;;;;5010631;28;20448;-68
2022/03/02 11:54:50;;;;;;;46.25;12.63;;;14.40;35.80;;;;;;5017370;28;20113;-68
2022/03/02 11:57:18;;;;;;;54.55;13.20;;;14.40;36.00;;;;;;4997271;28;20083;-68
2022/03/02 11:59:46;;;;;;;39.33;11.93;;;14.30;36.00;;;;;;5036751;28;20134;-66
2022/03/02 12:02:21;;;;;;;42.30;12.32;;;14.30;36.10;;;;;;5037057;28;20077;-66
2022/03/02 12:05:07;;;;;;;39.40;10.85;;;14.20;35.90;;;;;;5055864;28;20072;-68
2022/03/02 12:07:42;;;;;;;39.38;11.05;;;14.10;35.80;;;;;;5085279;28;20503;-66
2022/03/02 12:10:16;;;;;;;39.92;11.57;;;14.10;35.70;;;;;;5038966;28;20076;-66
2022/03/02 12:12:43;;;;;;;41.35;11.30;;;14.00;36.00;;;;;;5053186;28;20073;-67
2022/03/02 12:15:11;;;;;;;47.58;11.60;;;14.00;36.30;;;;;;5073053;28;20077;-66
2022/03/02 12:17:37;;;;;;;40.08;10.82;;;14.00;37.00;;;;;;5070711;28;20073;-66
2022/03/02 12:20:14;;;;;;;36.35;11.18;;;14.00;37.20;;;;;;5070459;28;20380;-66
2022/03/02 12:23:02;;;;;;;46.05;11.40;;;14.00;37.90;;;;;;5054535;28;20083;-65
2022/03/02 12:25:29;;;;;;;29.35;10.35;;;14.00;37.90;;;;;;5073479;28;20080;-66
2022/03/02 12:28:04;;;;;;;34.17;10.52;;;13.90;37.60;;;;;;5052577;28;20077;-66
2022/03/02 12:30:33;;;;;;;40.33;10.75;;;13.90;37.90;;;;;;5053092;28;20081;-65
2022/03/02 12:33:00;;;;;;;36.95;10.23;;;13.90;37.40;;;;;;5071065;28;20077;-65
2022/03/02 12:35:27;;;;;;;37.92;11.55;;;13.80;36.80;;;;;;5074263;28;20430;-65
2022/03/02 12:37:57;;;;;;;30.38;10.05;;;13.70;37.00;;;;;;5074672;28;20453;-65
2022/03/02 12:40:28;;;;;;;41.67;10.82;;;13.70;37.40;;;;;;5069304;28;20558;-66